sensor_id;sensor_type;location;lat;lon;timestamp;P1;durP1;ratioP1;P2;durP2;ratioP2
38944;SDS011;24732;49.088;8.286;2022-08-24T00:02:35;4.45;;;4.10;;
38944;SDS011;24732;49.088;8.286;2022-08-24T00:05:21;4.82;;;4.32;;
38944;SDS011;24732;49.088;8.286;2022-08-24T00:08:07;5.50;;;4.40;;
38944;SDS011;24732;49.088;8.286;2022-08-24T00:10:54;4.78;;;4.28;;
38944;SDS011;24732;49.088;8.286;2022-08-24T00:13:40;5.47;;;4.45;;
38944;SDS011;24732;49.088;8.286;2022-08-24T00:16:26;5.45;;;4.60;;
38944;SDS011;24732;49.088;8.286;2022-08-24T00:19:13;4.90;;;4.50;;
38944;SDS011;24732;49.088;8.286;2022-08-24T00:22:00;5.00;;;4.50;;
38944;SDS011;24732;49.088;8.286;2022-08-24T00:24:46;5.20;;;4.57;;
38944;SDS011;24732;49.088;8.286;2022-08-24T00:27:33;4.95;;;4.47;;
38944;SDS011;24732;49.088;8.286;2022-08-24T00:30:21;5.28;;;4.75;;
38944;SDS011;24732;49.088;8.286;2022-08-24T00:33:08;4.57;;;4.27;;
38944;SDS011;24732;49.088;8.286;2022-08-24T00:35:54;4.80;;;4.40;;
38944;SDS011;24732;49.088;8.286;2022-08-24T00:38:41;5.32;;;4.60;;
38944;SDS011;24732;49.088;8.286;2022-08-24T00:41:27;5.05;;;4.55;;
38944;SDS011;24732;49.088;8.286;2022-08-24T00:44:14;6.32;;;4.70;;
38944;SDS011;24732;49.088;8.286;2022-08-24T00:47:02;4.93;;;4.40;;
38944;SDS011;24732;49.088;8.286;2022-08-24T00:52:43;4.80;;;4.40;;
38944;SDS011;24732;49.088;8.286;2022-08-24T00:55:32;5.13;;;4.68;;
38944;SDS011;24732;49.088;8.286;2022-08-24T00:58:21;4.63;;;4.20;;
38944;SDS011;24732;49.088;8.286;2022-08-24T01:01:09;5.68;;;4.30;;
38944;SDS011;24732;49.088;8.286;2022-08-24T01:03:58;4.80;;;4.30;;
38944;SDS011;24732;49.088;8.286;2022-08-24T01:06:44;5.20;;;4.40;;
38944;SDS011;24732;49.088;8.286;2022-08-24T01:09:33;5.65;;;4.57;;
38944;SDS011;24732;49.088;8.286;2022-08-24T01:12:20;5.15;;;4.60;;
38944;SDS011;24732;49.088;8.286;2022-08-24T01:15:08;5.50;;;4.80;;
38944;SDS011;24732;49.088;8.286;2022-08-24T01:17:54;4.90;;;4.50;;
38944;SDS011;24732;49.088;8.286;2022-08-24T01:21:22;4.95;;;4.53;;
38944;SDS011;24732;49.088;8.286;2022-08-24T01:24:09;5.90;;;4.90;;
38944;SDS011;24732;49.088;8.286;2022-08-24T01:26:56;4.82;;;4.43;;
38944;SDS011;24732;49.088;8.286;2022-08-24T01:29:43;5.00;;;4.50;;
38944;SDS011;24732;49.088;8.286;2022-08-24T01:32:31;5.93;;;4.60;;
38944;SDS011;24732;49.088;8.286;2022-08-24T01:35:17;5.10;;;4.40;;
38944;SDS011;24732;49.088;8.286;2022-08-24T01:38:07;5.07;;;4.57;;
38944;SDS011;24732;49.088;8.286;2022-08-24T01:40:56;5.15;;;4.75;;
38944;SDS011;24732;49.088;8.286;2022-08-24T01:43:42;5.40;;;4.60;;
38944;SDS011;24732;49.088;8.286;2022-08-24T01:46:29;5.00;;;4.50;;
38944;SDS011;24732;49.088;8.286;2022-08-24T01:49:15;5.95;;;4.57;;
38944;SDS011;24732;49.088;8.286;2022-08-24T01:52:03;4.63;;;4.22;;
38944;SDS011;24732;49.088;8.286;2022-08-24T01:54:51;5.28;;;4.78;;
38944;SDS011;24732;49.088;8.286;2022-08-24T01:57:37;5.03;;;4.60;;
38944;SDS011;24732;49.088;8.286;2022-08-24T02:00:24;5.28;;;4.85;;
38944;SDS011;24732;49.088;8.286;2022-08-24T02:03:10;5.50;;;4.90;;
38944;SDS011;24732;49.088;8.286;2022-08-24T02:05:56;5.25;;;4.70;;
38944;SDS011;24732;49.088;8.286;2022-08-24T02:08:43;5.20;;;4.80;;
38944;SDS011;24732;49.088;8.286;2022-08-24T02:11:30;5.30;;;4.80;;
38944;SDS011;24732;49.088;8.286;2022-08-24T02:14:17;5.10;;;4.60;;
38944;SDS011;24732;49.088;8.286;2022-08-24T02:17:04;5.50;;;4.90;;
38944;SDS011;24732;49.088;8.286;2022-08-24T02:19:51;5.20;;;4.70;;
38944;SDS011;24732;49.088;8.286;2022-08-24T02:22:38;5.15;;;4.65;;
38944;SDS011;24732;49.088;8.286;2022-08-24T02:25:24;6.20;;;4.70;;
38944;SDS011;24732;49.088;8.286;2022-08-24T02:28:14;5.05;;;4.55;;
38944;SDS011;24732;49.088;8.286;2022-08-24T02:31:01;5.30;;;4.80;;
38944;SDS011;24732;49.088;8.286;2022-08-24T02:33:50;6.65;;;5.10;;
38944;SDS011;24732;49.088;8.286;2022-08-24T02:36:36;6.20;;;5.20;;
38944;SDS011;24732;49.088;8.286;2022-08-24T02:39:23;6.40;;;5.33;;
38944;SDS011;24732;49.088;8.286;2022-08-24T02:42:09;6.55;;;5.55;;
38944;SDS011;24732;49.088;8.286;2022-08-24T02:44:56;5.75;;;5.10;;
38944;SDS011;24732;49.088;8.286;2022-08-24T02:47:42;5.95;;;5.43;;
38944;SDS011;24732;49.088;8.286;2022-08-24T02:50:29;6.20;;;5.53;;
38944;SDS011;24732;49.088;8.286;2022-08-24T02:53:16;6.18;;;5.57;;
38944;SDS011;24732;49.088;8.286;2022-08-24T02:56:02;5.80;;;5.20;;
38944;SDS011;24732;49.088;8.286;2022-08-24T02:58:49;6.10;;;5.50;;
38944;SDS011;24732;49.088;8.286;2022-08-24T03:01:35;6.00;;;5.40;;
38944;SDS011;24732;49.088;8.286;2022-08-24T03:04:21;6.20;;;5.60;;
38944;SDS011;24732;49.088;8.286;2022-08-24T03:07:08;6.05;;;5.55;;
38944;SDS011;24732;49.088;8.286;2022-08-24T03:09:54;5.82;;;5.32;;
38944;SDS011;24732;49.088;8.286;2022-08-24T03:12:41;6.10;;;5.50;;
38944;SDS011;24732;49.088;8.286;2022-08-24T03:15:27;6.32;;;5.82;;
38944;SDS011;24732;49.088;8.286;2022-08-24T03:18:14;7.45;;;5.78;;
38944;SDS011;24732;49.088;8.286;2022-08-24T03:21:00;6.15;;;5.63;;
38944;SDS011;24732;49.088;8.286;2022-08-24T03:23:47;6.50;;;5.72;;
38944;SDS011;24732;49.088;8.286;2022-08-24T03:26:33;6.38;;;5.78;;
38944;SDS011;24732;49.088;8.286;2022-08-24T03:29:20;6.07;;;5.17;;
38944;SDS011;24732;49.088;8.286;2022-08-24T03:32:06;6.35;;;5.75;;
38944;SDS011;24732;49.088;8.286;2022-08-24T03:34:53;5.82;;;5.22;;
38944;SDS011;24732;49.088;8.286;2022-08-24T03:37:40;6.13;;;5.53;;
38944;SDS011;24732;49.088;8.286;2022-08-24T03:40:27;6.22;;;5.60;;
38944;SDS011;24732;49.088;8.286;2022-08-24T03:43:13;6.30;;;5.80;;
38944;SDS011;24732;49.088;8.286;2022-08-24T03:46:21;6.97;;;6.00;;
38944;SDS011;24732;49.088;8.286;2022-08-24T03:49:08;6.67;;;5.90;;
38944;SDS011;24732;49.088;8.286;2022-08-24T03:51:54;6.43;;;5.82;;
38944;SDS011;24732;49.088;8.286;2022-08-24T03:54:41;7.30;;;6.35;;
38944;SDS011;24732;49.088;8.286;2022-08-24T03:57:27;6.82;;;6.10;;
38944;SDS011;24732;49.088;8.286;2022-08-24T04:00:14;7.25;;;6.55;;
38944;SDS011;24732;49.088;8.286;2022-08-24T04:03:00;6.85;;;6.25;;
38944;SDS011;24732;49.088;8.286;2022-08-24T04:05:49;7.75;;;6.38;;
38944;SDS011;24732;49.088;8.286;2022-08-24T04:08:35;7.05;;;6.35;;
38944;SDS011;24732;49.088;8.286;2022-08-24T04:11:23;6.68;;;6.00;;
38944;SDS011;24732;49.088;8.286;2022-08-24T04:14:10;6.57;;;5.90;;
38944;SDS011;24732;49.088;8.286;2022-08-24T04:16:57;7.05;;;6.32;;
38944;SDS011;24732;49.088;8.286;2022-08-24T04:19:43;6.25;;;5.65;;
38944;SDS011;24732;49.088;8.286;2022-08-24T04:22:41;7.20;;;6.13;;
38944;SDS011;24732;49.088;8.286;2022-08-24T04:25:28;7.57;;;6.88;;
38944;SDS011;24732;49.088;8.286;2022-08-24T04:28:15;7.57;;;6.20;;
38944;SDS011;24732;49.088;8.286;2022-08-24T04:31:03;7.68;;;6.50;;
38944;SDS011;24732;49.088;8.286;2022-08-24T04:33:51;6.90;;;6.20;;
38944;SDS011;24732;49.088;8.286;2022-08-24T04:36:41;8.30;;;7.32;;
38944;SDS011;24732;49.088;8.286;2022-08-24T04:39:29;7.23;;;6.20;;
38944;SDS011;24732;49.088;8.286;2022-08-24T04:42:15;8.15;;;6.40;;
38944;SDS011;24732;49.088;8.286;2022-08-24T04:45:02;6.82;;;6.13;;
38944;SDS011;24732;49.088;8.286;2022-08-24T04:47:48;7.00;;;6.35;;
38944;SDS011;24732;49.088;8.286;2022-08-24T04:50:35;7.00;;;6.28;;
38944;SDS011;24732;49.088;8.286;2022-08-24T04:53:21;7.20;;;6.50;;
38944;SDS011;24732;49.088;8.286;2022-08-24T04:56:16;7.18;;;6.47;;
38944;SDS011;24732;49.088;8.286;2022-08-24T04:59:03;9.32;;;6.60;;
38944;SDS011;24732;49.088;8.286;2022-08-24T05:01:49;7.30;;;6.57;;
38944;SDS011;24732;49.088;8.286;2022-08-24T05:04:36;7.55;;;6.70;;
38944;SDS011;24732;49.088;8.286;2022-08-24T05:07:23;7.00;;;6.38;;
38944;SDS011;24732;49.088;8.286;2022-08-24T05:10:10;6.97;;;6.38;;
38944;SDS011;24732;49.088;8.286;2022-08-24T05:12:56;7.03;;;6.32;;
38944;SDS011;24732;49.088;8.286;2022-08-24T05:15:44;7.75;;;6.95;;
38944;SDS011;24732;49.088;8.286;2022-08-24T05:18:30;9.52;;;6.70;;
38944;SDS011;24732;49.088;8.286;2022-08-24T05:21:18;7.75;;;6.80;;
38944;SDS011;24732;49.088;8.286;2022-08-24T05:24:05;7.72;;;6.70;;
38944;SDS011;24732;49.088;8.286;2022-08-24T05:26:51;7.78;;;6.65;;
38944;SDS011;24732;49.088;8.286;2022-08-24T05:29:38;8.20;;;7.40;;
38944;SDS011;24732;49.088;8.286;2022-08-24T05:32:24;6.97;;;6.25;;
38944;SDS011;24732;49.088;8.286;2022-08-24T05:35:14;6.68;;;5.97;;
38944;SDS011;24732;49.088;8.286;2022-08-24T05:38:00;7.20;;;5.95;;
38944;SDS011;24732;49.088;8.286;2022-08-24T05:40:47;7.03;;;6.30;;
38944;SDS011;24732;49.088;8.286;2022-08-24T05:43:33;6.90;;;6.20;;
38944;SDS011;24732;49.088;8.286;2022-08-24T05:46:20;7.00;;;6.30;;
38944;SDS011;24732;49.088;8.286;2022-08-24T05:49:06;8.05;;;6.20;;
38944;SDS011;24732;49.088;8.286;2022-08-24T05:51:52;7.57;;;6.17;;
38944;SDS011;24732;49.088;8.286;2022-08-24T05:54:39;6.50;;;5.90;;
38944;SDS011;24732;49.088;8.286;2022-08-24T05:57:26;7.93;;;5.55;;
38944;SDS011;24732;49.088;8.286;2022-08-24T06:00:15;6.60;;;5.68;;
38944;SDS011;24732;49.088;8.286;2022-08-24T06:03:02;6.15;;;5.45;;
38944;SDS011;24732;49.088;8.286;2022-08-24T06:05:48;6.60;;;5.50;;
38944;SDS011;24732;49.088;8.286;2022-08-24T06:08:37;6.20;;;5.60;;
38944;SDS011;24732;49.088;8.286;2022-08-24T06:14:14;5.65;;;5.00;;
38944;SDS011;24732;49.088;8.286;2022-08-24T06:17:02;5.82;;;5.15;;
38944;SDS011;24732;49.088;8.286;2022-08-24T06:19:50;5.65;;;5.05;;
38944;SDS011;24732;49.088;8.286;2022-08-24T06:22:36;5.20;;;4.70;;
38944;SDS011;24732;49.088;8.286;2022-08-24T06:25:22;6.43;;;5.30;;
38944;SDS011;24732;49.088;8.286;2022-08-24T06:28:28;6.47;;;5.00;;
38944;SDS011;24732;49.088;8.286;2022-08-24T06:31:16;6.22;;;4.75;;
38944;SDS011;24732;49.088;8.286;2022-08-24T06:34:03;6.70;;;4.78;;
38944;SDS011;24732;49.088;8.286;2022-08-24T06:36:49;5.85;;;4.80;;
38944;SDS011;24732;49.088;8.286;2022-08-24T06:39:37;14.52;;;12.98;;
38944;SDS011;24732;49.088;8.286;2022-08-24T06:42:23;13.40;;;11.00;;
38944;SDS011;24732;49.088;8.286;2022-08-24T06:45:09;6.75;;;6.03;;
38944;SDS011;24732;49.088;8.286;2022-08-24T06:47:56;5.53;;;4.95;;
38944;SDS011;24732;49.088;8.286;2022-08-24T06:50:42;6.45;;;5.07;;
38944;SDS011;24732;49.088;8.286;2022-08-24T06:53:28;5.63;;;5.03;;
38944;SDS011;24732;49.088;8.286;2022-08-24T06:56:15;8.27;;;5.10;;
38944;SDS011;24732;49.088;8.286;2022-08-24T06:59:02;6.25;;;4.30;;
38944;SDS011;24732;49.088;8.286;2022-08-24T07:01:48;4.82;;;4.32;;
38944;SDS011;24732;49.088;8.286;2022-08-24T07:04:35;6.17;;;4.27;;
38944;SDS011;24732;49.088;8.286;2022-08-24T07:07:21;5.75;;;4.35;;
38944;SDS011;24732;49.088;8.286;2022-08-24T07:10:08;4.90;;;3.90;;
38944;SDS011;24732;49.088;8.286;2022-08-24T07:12:55;4.57;;;4.10;;
38944;SDS011;24732;49.088;8.286;2022-08-24T07:15:42;4.38;;;3.97;;
38944;SDS011;24732;49.088;8.286;2022-08-24T07:18:29;5.07;;;4.20;;
38944;SDS011;24732;49.088;8.286;2022-08-24T07:21:15;5.85;;;4.07;;
38944;SDS011;24732;49.088;8.286;2022-08-24T07:24:03;6.30;;;3.97;;
38944;SDS011;24732;49.088;8.286;2022-08-24T07:26:51;6.13;;;4.03;;
38944;SDS011;24732;49.088;8.286;2022-08-24T07:29:38;4.65;;;3.75;;
38944;SDS011;24732;49.088;8.286;2022-08-24T07:32:24;5.45;;;4.07;;
38944;SDS011;24732;49.088;8.286;2022-08-24T07:35:10;5.47;;;3.85;;
38944;SDS011;24732;49.088;8.286;2022-08-24T07:37:57;4.47;;;3.85;;
38944;SDS011;24732;49.088;8.286;2022-08-24T07:40:45;4.50;;;3.90;;
38944;SDS011;24732;49.088;8.286;2022-08-24T07:43:34;7.97;;;3.90;;
38944;SDS011;24732;49.088;8.286;2022-08-24T07:46:21;5.10;;;3.60;;
38944;SDS011;24732;49.088;8.286;2022-08-24T07:49:07;4.22;;;3.80;;
38944;SDS011;24732;49.088;8.286;2022-08-24T07:51:55;3.75;;;3.45;;
38944;SDS011;24732;49.088;8.286;2022-08-24T07:54:41;4.70;;;3.72;;
38944;SDS011;24732;49.088;8.286;2022-08-24T07:57:27;5.20;;;3.92;;
38944;SDS011;24732;49.088;8.286;2022-08-24T08:00:15;3.92;;;3.53;;
38944;SDS011;24732;49.088;8.286;2022-08-24T08:03:03;4.22;;;3.55;;
38944;SDS011;24732;49.088;8.286;2022-08-24T08:05:57;4.57;;;3.70;;
38944;SDS011;24732;49.088;8.286;2022-08-24T08:08:43;5.15;;;3.65;;
38944;SDS011;24732;49.088;8.286;2022-08-24T08:11:30;4.85;;;3.65;;
38944;SDS011;24732;49.088;8.286;2022-08-24T08:14:17;5.22;;;3.67;;
38944;SDS011;24732;49.088;8.286;2022-08-24T08:17:04;4.95;;;3.40;;
38944;SDS011;24732;49.088;8.286;2022-08-24T08:19:51;4.13;;;3.38;;
38944;SDS011;24732;49.088;8.286;2022-08-24T08:22:38;4.93;;;3.55;;
38944;SDS011;24732;49.088;8.286;2022-08-24T08:25:46;3.78;;;3.40;;
38944;SDS011;24732;49.088;8.286;2022-08-24T08:28:33;3.60;;;3.30;;
38944;SDS011;24732;49.088;8.286;2022-08-24T08:31:20;4.82;;;3.70;;
38944;SDS011;24732;49.088;8.286;2022-08-24T08:34:07;4.20;;;3.70;;
38944;SDS011;24732;49.088;8.286;2022-08-24T08:36:54;5.22;;;3.60;;
38944;SDS011;24732;49.088;8.286;2022-08-24T08:39:40;4.55;;;3.13;;
38944;SDS011;24732;49.088;8.286;2022-08-24T08:45:34;5.03;;;3.45;;
38944;SDS011;24732;49.088;8.286;2022-08-24T08:57:28;5.47;;;3.33;;
38944;SDS011;24732;49.088;8.286;2022-08-24T09:03:15;4.20;;;3.25;;
38944;SDS011;24732;49.088;8.286;2022-08-24T09:12:21;16.30;;;4.15;;
38944;SDS011;24732;49.088;8.286;2022-08-24T09:24:39;3.58;;;2.70;;
38944;SDS011;24732;49.088;8.286;2022-08-24T09:30:31;3.60;;;3.00;;
38944;SDS011;24732;49.088;8.286;2022-08-24T09:33:21;3.13;;;2.80;;
38944;SDS011;24732;49.088;8.286;2022-08-24T09:36:08;3.55;;;3.20;;
38944;SDS011;24732;49.088;8.286;2022-08-24T09:44:47;3.33;;;2.72;;
38944;SDS011;24732;49.088;8.286;2022-08-24T10:07:43;3.10;;;2.70;;
38944;SDS011;24732;49.088;8.286;2022-08-24T10:19:45;5.28;;;4.22;;
38944;SDS011;24732;49.088;8.286;2022-08-24T10:31:30;3.22;;;2.50;;
38944;SDS011;24732;49.088;8.286;2022-08-24T10:43:17;3.28;;;2.40;;
38944;SDS011;24732;49.088;8.286;2022-08-24T10:55:13;3.58;;;2.60;;
38944;SDS011;24732;49.088;8.286;2022-08-24T11:00:49;4.07;;;3.10;;
38944;SDS011;24732;49.088;8.286;2022-08-24T11:03:45;5.60;;;3.80;;
38944;SDS011;24732;49.088;8.286;2022-08-24T11:06:34;4.68;;;3.67;;
38944;SDS011;24732;49.088;8.286;2022-08-24T11:09:21;2.65;;;2.45;;
38944;SDS011;24732;49.088;8.286;2022-08-24T11:12:15;3.38;;;2.53;;
38944;SDS011;24732;49.088;8.286;2022-08-24T11:18:03;3.90;;;2.40;;
38944;SDS011;24732;49.088;8.286;2022-08-24T11:20:51;3.22;;;2.30;;
38944;SDS011;24732;49.088;8.286;2022-08-24T11:23:39;4.03;;;2.22;;
38944;SDS011;24732;49.088;8.286;2022-08-24T11:26:26;5.22;;;2.42;;
38944;SDS011;24732;49.088;8.286;2022-08-24T11:29:12;4.13;;;2.20;;
38944;SDS011;24732;49.088;8.286;2022-08-24T11:31:58;6.05;;;2.70;;
38944;SDS011;24732;49.088;8.286;2022-08-24T11:34:45;2.85;;;2.25;;
38944;SDS011;24732;49.088;8.286;2022-08-24T11:37:45;5.13;;;2.50;;
38944;SDS011;24732;49.088;8.286;2022-08-24T11:40:32;2.60;;;2.40;;
38944;SDS011;24732;49.088;8.286;2022-08-24T11:43:57;3.10;;;2.40;;
38944;SDS011;24732;49.088;8.286;2022-08-24T11:50:40;6.40;;;2.80;;
38944;SDS011;24732;49.088;8.286;2022-08-24T11:53:13;3.28;;;2.55;;
38944;SDS011;24732;49.088;8.286;2022-08-24T12:02:10;3.65;;;2.70;;
38944;SDS011;24732;49.088;8.286;2022-08-24T12:05:03;3.90;;;2.60;;
38944;SDS011;24732;49.088;8.286;2022-08-24T12:10:54;4.88;;;2.90;;
38944;SDS011;24732;49.088;8.286;2022-08-24T12:13:47;3.75;;;2.80;;
38944;SDS011;24732;49.088;8.286;2022-08-24T12:16:37;4.30;;;2.87;;
38944;SDS011;24732;49.088;8.286;2022-08-24T12:19:26;4.18;;;2.80;;
38944;SDS011;24732;49.088;8.286;2022-08-24T12:22:14;3.70;;;2.90;;
38944;SDS011;24732;49.088;8.286;2022-08-24T12:25:02;3.80;;;2.90;;
38944;SDS011;24732;49.088;8.286;2022-08-24T12:28:08;4.13;;;3.00;;
38944;SDS011;24732;49.088;8.286;2022-08-24T12:30:56;2.90;;;2.70;;
38944;SDS011;24732;49.088;8.286;2022-08-24T12:33:44;4.53;;;2.80;;
38944;SDS011;24732;49.088;8.286;2022-08-24T12:36:35;3.50;;;3.08;;
38944;SDS011;24732;49.088;8.286;2022-08-24T12:39:28;3.67;;;2.92;;
38944;SDS011;24732;49.088;8.286;2022-08-24T12:42:24;4.20;;;2.92;;
38944;SDS011;24732;49.088;8.286;2022-08-24T12:45:14;3.80;;;2.93;;
38944;SDS011;24732;49.088;8.286;2022-08-24T12:48:06;3.92;;;2.85;;
38944;SDS011;24732;49.088;8.286;2022-08-24T12:53:48;6.50;;;2.83;;
38944;SDS011;24732;49.088;8.286;2022-08-24T13:05:09;4.82;;;3.80;;
38944;SDS011;24732;49.088;8.286;2022-08-24T13:08:02;5.45;;;4.18;;
38944;SDS011;24732;49.088;8.286;2022-08-24T13:10:59;3.72;;;3.00;;
38944;SDS011;24732;49.088;8.286;2022-08-24T13:19:42;3.70;;;2.90;;
38944;SDS011;24732;49.088;8.286;2022-08-24T13:25:26;2.83;;;2.63;;
38944;SDS011;24732;49.088;8.286;2022-08-24T13:31:12;3.63;;;2.70;;
38944;SDS011;24732;49.088;8.286;2022-08-24T13:36:55;3.10;;;2.80;;
38944;SDS011;24732;49.088;8.286;2022-08-24T13:39:54;3.60;;;2.70;;
38944;SDS011;24732;49.088;8.286;2022-08-24T13:45:45;4.00;;;3.10;;
38944;SDS011;24732;49.088;8.286;2022-08-24T13:51:34;4.28;;;2.88;;
38944;SDS011;24732;49.088;8.286;2022-08-24T13:54:36;3.88;;;2.58;;
38944;SDS011;24732;49.088;8.286;2022-08-24T13:57:32;4.03;;;2.90;;
38944;SDS011;24732;49.088;8.286;2022-08-24T14:03:27;2.50;;;2.28;;
38944;SDS011;24732;49.088;8.286;2022-08-24T14:12:12;4.72;;;3.40;;
38944;SDS011;24732;49.088;8.286;2022-08-24T14:23:52;2.92;;;2.50;;
38944;SDS011;24732;49.088;8.286;2022-08-24T14:29:31;3.17;;;2.50;;
38944;SDS011;24732;49.088;8.286;2022-08-24T14:35:17;4.20;;;2.40;;
38944;SDS011;24732;49.088;8.286;2022-08-24T14:46:54;5.93;;;3.20;;
38944;SDS011;24732;49.088;8.286;2022-08-24T14:50:31;3.10;;;2.80;;
38944;SDS011;24732;49.088;8.286;2022-08-24T14:53:12;3.90;;;2.80;;
38944;SDS011;24732;49.088;8.286;2022-08-24T14:58:59;2.90;;;2.67;;
38944;SDS011;24732;49.088;8.286;2022-08-24T15:01:49;2.95;;;2.40;;
38944;SDS011;24732;49.088;8.286;2022-08-24T15:04:40;3.87;;;2.50;;
38944;SDS011;24732;49.088;8.286;2022-08-24T15:07:29;2.70;;;2.42;;
38944;SDS011;24732;49.088;8.286;2022-08-24T15:10:15;2.70;;;2.50;;
38944;SDS011;24732;49.088;8.286;2022-08-24T15:16:20;3.25;;;2.40;;
38944;SDS011;24732;49.088;8.286;2022-08-24T15:25:10;3.30;;;2.30;;
38944;SDS011;24732;49.088;8.286;2022-08-24T15:28:08;2.58;;;2.30;;
38944;SDS011;24732;49.088;8.286;2022-08-24T15:31:17;2.88;;;2.30;;
38944;SDS011;24732;49.088;8.286;2022-08-24T15:34:03;3.17;;;2.50;;
38944;SDS011;24732;49.088;8.286;2022-08-24T15:36:59;3.83;;;3.40;;
38944;SDS011;24732;49.088;8.286;2022-08-24T15:39:46;8.73;;;7.40;;
38944;SDS011;24732;49.088;8.286;2022-08-24T15:42:33;3.70;;;3.23;;
38944;SDS011;24732;49.088;8.286;2022-08-24T15:45:20;2.88;;;2.53;;
38944;SDS011;24732;49.088;8.286;2022-08-24T15:48:08;2.67;;;2.47;;
38944;SDS011;24732;49.088;8.286;2022-08-24T15:50:55;3.03;;;2.60;;
38944;SDS011;24732;49.088;8.286;2022-08-24T15:53:42;3.85;;;2.28;;
38944;SDS011;24732;49.088;8.286;2022-08-24T15:56:30;2.63;;;2.43;;
38944;SDS011;24732;49.088;8.286;2022-08-24T16:00:04;2.30;;;2.10;;
38944;SDS011;24732;49.088;8.286;2022-08-24T16:02:29;3.45;;;2.42;;
38944;SDS011;24732;49.088;8.286;2022-08-24T16:08:10;2.30;;;2.10;;
38944;SDS011;24732;49.088;8.286;2022-08-24T16:10:58;3.95;;;2.30;;
38944;SDS011;24732;49.088;8.286;2022-08-24T16:13:52;2.40;;;2.20;;
38944;SDS011;24732;49.088;8.286;2022-08-24T16:16:40;2.53;;;2.33;;
38944;SDS011;24732;49.088;8.286;2022-08-24T16:19:29;2.30;;;2.10;;
38944;SDS011;24732;49.088;8.286;2022-08-24T16:25:40;2.40;;;2.20;;
38944;SDS011;24732;49.088;8.286;2022-08-24T16:31:41;3.10;;;2.10;;
38944;SDS011;24732;49.088;8.286;2022-08-24T16:34:28;6.93;;;2.40;;
38944;SDS011;24732;49.088;8.286;2022-08-24T16:37:15;4.80;;;2.73;;
38944;SDS011;24732;49.088;8.286;2022-08-24T16:40:03;4.03;;;2.30;;
38944;SDS011;24732;49.088;8.286;2022-08-24T16:42:49;4.38;;;2.55;;
38944;SDS011;24732;49.088;8.286;2022-08-24T16:45:47;3.57;;;2.60;;
38944;SDS011;24732;49.088;8.286;2022-08-24T16:48:34;4.32;;;2.75;;
38944;SDS011;24732;49.088;8.286;2022-08-24T16:51:20;3.23;;;2.17;;
38944;SDS011;24732;49.088;8.286;2022-08-24T16:54:09;3.30;;;2.20;;
38944;SDS011;24732;49.088;8.286;2022-08-24T16:56:57;2.42;;;2.10;;
38944;SDS011;24732;49.088;8.286;2022-08-24T16:59:46;3.20;;;2.03;;
38944;SDS011;24732;49.088;8.286;2022-08-24T17:02:33;2.83;;;1.90;;
38944;SDS011;24732;49.088;8.286;2022-08-24T17:05:20;2.10;;;1.93;;
38944;SDS011;24732;49.088;8.286;2022-08-24T17:08:06;2.28;;;1.83;;
38944;SDS011;24732;49.088;8.286;2022-08-24T17:10:53;2.17;;;1.98;;
38944;SDS011;24732;49.088;8.286;2022-08-24T17:13:39;2.00;;;1.90;;
38944;SDS011;24732;49.088;8.286;2022-08-24T17:16:26;2.50;;;1.95;;
38944;SDS011;24732;49.088;8.286;2022-08-24T17:19:14;3.17;;;2.10;;
38944;SDS011;24732;49.088;8.286;2022-08-24T17:22:02;2.90;;;2.10;;
38944;SDS011;24732;49.088;8.286;2022-08-24T17:24:48;4.00;;;2.70;;
38944;SDS011;24732;49.088;8.286;2022-08-24T17:27:35;3.95;;;2.67;;
38944;SDS011;24732;49.088;8.286;2022-08-24T17:30:22;5.10;;;2.60;;
38944;SDS011;24732;49.088;8.286;2022-08-24T17:33:09;3.28;;;2.17;;
38944;SDS011;24732;49.088;8.286;2022-08-24T17:35:55;5.10;;;2.40;;
38944;SDS011;24732;49.088;8.286;2022-08-24T17:38:43;3.57;;;2.30;;
38944;SDS011;24732;49.088;8.286;2022-08-24T17:41:30;4.35;;;2.80;;
38944;SDS011;24732;49.088;8.286;2022-08-24T17:44:18;4.60;;;2.50;;
38944;SDS011;24732;49.088;8.286;2022-08-24T17:47:05;4.50;;;2.58;;
38944;SDS011;24732;49.088;8.286;2022-08-24T17:49:52;4.57;;;2.40;;
38944;SDS011;24732;49.088;8.286;2022-08-24T17:52:39;3.87;;;2.20;;
38944;SDS011;24732;49.088;8.286;2022-08-24T17:55:26;4.00;;;2.13;;
38944;SDS011;24732;49.088;8.286;2022-08-24T17:58:13;3.90;;;2.50;;
38944;SDS011;24732;49.088;8.286;2022-08-24T18:01:00;3.22;;;2.20;;
38944;SDS011;24732;49.088;8.286;2022-08-24T18:03:46;3.47;;;2.42;;
38944;SDS011;24732;49.088;8.286;2022-08-24T18:06:32;3.03;;;2.38;;
38944;SDS011;24732;49.088;8.286;2022-08-24T18:09:36;3.30;;;2.20;;
38944;SDS011;24732;49.088;8.286;2022-08-24T18:12:23;2.85;;;2.30;;
38944;SDS011;24732;49.088;8.286;2022-08-24T18:15:09;3.90;;;2.30;;
38944;SDS011;24732;49.088;8.286;2022-08-24T18:17:56;4.38;;;2.33;;
38944;SDS011;24732;49.088;8.286;2022-08-24T18:20:43;3.40;;;2.10;;
38944;SDS011;24732;49.088;8.286;2022-08-24T18:23:29;3.00;;;2.20;;
38944;SDS011;24732;49.088;8.286;2022-08-24T18:26:23;3.05;;;2.00;;
38944;SDS011;24732;49.088;8.286;2022-08-24T18:29:14;2.60;;;2.10;;
38944;SDS011;24732;49.088;8.286;2022-08-24T18:32:01;3.88;;;2.10;;
38944;SDS011;24732;49.088;8.286;2022-08-24T18:34:48;3.47;;;2.15;;
38944;SDS011;24732;49.088;8.286;2022-08-24T18:37:34;2.35;;;1.90;;
38944;SDS011;24732;49.088;8.286;2022-08-24T18:40:21;5.60;;;2.00;;
38944;SDS011;24732;49.088;8.286;2022-08-24T18:43:08;2.20;;;2.00;;
38944;SDS011;24732;49.088;8.286;2022-08-24T18:45:56;2.60;;;2.03;;
38944;SDS011;24732;49.088;8.286;2022-08-24T18:48:42;2.30;;;2.10;;
38944;SDS011;24732;49.088;8.286;2022-08-24T18:51:30;3.13;;;1.90;;
38944;SDS011;24732;49.088;8.286;2022-08-24T18:54:21;2.97;;;2.00;;
38944;SDS011;24732;49.088;8.286;2022-08-24T18:57:08;2.60;;;1.80;;
38944;SDS011;24732;49.088;8.286;2022-08-24T18:59:54;2.45;;;2.00;;
38944;SDS011;24732;49.088;8.286;2022-08-24T19:02:40;3.03;;;2.00;;
38944;SDS011;24732;49.088;8.286;2022-08-24T19:05:27;3.33;;;2.10;;
38944;SDS011;24732;49.088;8.286;2022-08-24T19:08:13;2.25;;;1.95;;
38944;SDS011;24732;49.088;8.286;2022-08-24T19:10:59;2.60;;;2.00;;
38944;SDS011;24732;49.088;8.286;2022-08-24T19:13:46;3.17;;;2.10;;
38944;SDS011;24732;49.088;8.286;2022-08-24T19:16:32;2.63;;;1.95;;
38944;SDS011;24732;49.088;8.286;2022-08-24T19:19:19;3.85;;;2.00;;
38944;SDS011;24732;49.088;8.286;2022-08-24T19:22:05;3.47;;;1.88;;
38944;SDS011;24732;49.088;8.286;2022-08-24T19:24:53;3.60;;;1.90;;
38944;SDS011;24732;49.088;8.286;2022-08-24T19:27:42;2.88;;;2.13;;
38944;SDS011;24732;49.088;8.286;2022-08-24T19:30:28;2.50;;;1.90;;
38944;SDS011;24732;49.088;8.286;2022-08-24T19:33:17;2.17;;;1.92;;
38944;SDS011;24732;49.088;8.286;2022-08-24T19:36:04;2.25;;;2.00;;
38944;SDS011;24732;49.088;8.286;2022-08-24T19:38:51;2.30;;;2.00;;
38944;SDS011;24732;49.088;8.286;2022-08-24T19:41:37;2.40;;;2.20;;
38944;SDS011;24732;49.088;8.286;2022-08-24T19:44:26;2.65;;;2.00;;
38944;SDS011;24732;49.088;8.286;2022-08-24T19:47:31;2.30;;;2.10;;
38944;SDS011;24732;49.088;8.286;2022-08-24T19:50:18;3.30;;;3.00;;
38944;SDS011;24732;49.088;8.286;2022-08-24T19:53:05;14.82;;;13.27;;
38944;SDS011;24732;49.088;8.286;2022-08-24T19:55:51;7.03;;;5.60;;
38944;SDS011;24732;49.088;8.286;2022-08-24T19:58:45;5.43;;;3.73;;
38944;SDS011;24732;49.088;8.286;2022-08-24T20:01:33;2.88;;;2.22;;
38944;SDS011;24732;49.088;8.286;2022-08-24T20:04:21;3.85;;;2.13;;
38944;SDS011;24732;49.088;8.286;2022-08-24T20:07:08;3.55;;;2.40;;
38944;SDS011;24732;49.088;8.286;2022-08-24T20:09:55;3.35;;;2.13;;
38944;SDS011;24732;49.088;8.286;2022-08-24T20:12:41;2.70;;;2.00;;
38944;SDS011;24732;49.088;8.286;2022-08-24T20:15:28;2.78;;;2.22;;
38944;SDS011;24732;49.088;8.286;2022-08-24T20:18:14;2.33;;;2.13;;
38944;SDS011;24732;49.088;8.286;2022-08-24T20:21:01;3.85;;;2.08;;
38944;SDS011;24732;49.088;8.286;2022-08-24T20:23:47;2.97;;;2.30;;